Wilsonville, Nebraska
Current Conditions -  °F | °C
As of 2:53 AM on Monday 20 Oct 2014 (Local Time) from KMCK Reporting Station
Clear Clear  
Wind Chill: 38°   Ceiling: Unl
Heat Index: 41°   Visibility: 10mi
Dew Point: 38°   Wind: 5mph
Humidity: 89%   Direction: 240°WSW
Pressure: 30.09"   Gusts: NA
Location:  40.11°N, 100.11°W
Report Text: KMCK 200753Z AUTO 24004KT 10SM CLR 05/03 A3009 RMK AO2 SLP184 T00500033
Loading
Personal Weather Stations






























Interactive Weather Map
Tropical Storm Tracking
New forecast layout! Learn more

10-Day Weather Forecast

Advertisements
Track Severe Weather on mobile